»·PEaware :: N800DW KLAS-KSNA

N800DW :: KLAS-KSNA

FLIGHT INFORMATION

Flight Status: Arrived
Operator: Privately registered:
United States
More flights under this callsign
Pilot: Scott L. (17677)
Aircraft: Unknown
(SF50)
More flights by this aircraft type
Origin: KLAS McCarran Intl
United States
Destination: KSNA John Wayne-Orange Co
United States
More flights between these airports :: More routes between these airports
Route: BOACH8 WHIGG FEYLA DSNEE4
File this flight plan on PilotEdge
Remarks:
Altitude:
(Current/Filed)
24,000ft
Speed:
(Current/Filed)
350kts
Departed: 04-Dec-18 08:18 AM
Arrived: 04-Dec-18 09:10 AM
Distance/Time
Traveled:
197nm/0:52
Distance/Time
To Go:
Arrived

Flight Plot

Page will automatically refresh every two minutes.

Flight plan parsing failed; only flown route is shown


Map Options




Map Legend


Flown Route
Filed Route
Departure Airport
Arrival Airport
Navaid (VOR, NDB)
Fix

Horizontal Profiles

Position Reports

Time Latitude Longitude Heading Altitude Ground
Speed
04-Dec-18 08:04 36.100203 -115.159559 214 2115ft 0kts
04-Dec-18 08:05 36.100203 -115.159559 214 2115ft 0kts
04-Dec-18 08:06 36.100203 -115.159559 214 2115ft 0kts
04-Dec-18 08:07 36.100203 -115.159559 214 2115ft 0kts
04-Dec-18 08:08 36.100203 -115.159559 214 2115ft 0kts
04-Dec-18 08:09 36.100203 -115.159559 214 2115ft 0kts
04-Dec-18 08:10 36.100203 -115.159559 214 2115ft 0kts
04-Dec-18 08:11 36.100203 -115.159559 214 2115ft 0kts
04-Dec-18 08:12 36.100203 -115.159559 214 2115ft 0kts
04-Dec-18 08:13 36.100203 -115.159559 214 2115ft 0kts
04-Dec-18 08:14 36.100203 -115.159559 214 2115ft 0kts
04-Dec-18 08:15 36.099446 -115.159146 96 2115ft 7kts
04-Dec-18 08:16 36.099805 -115.157223 108 2115ft 9kts
04-Dec-18 08:17 36.075711 -115.170163 206 2687ft 179kts
04-Dec-18 08:18 36.021791 -115.201707 214 4618ft 242kts
04-Dec-18 08:19 35.983992 -115.273173 242 6712ft 255kts
04-Dec-18 08:20 35.921776 -115.307609 187 8804ft 260kts
04-Dec-18 08:21 35.850844 -115.314110 177 10885ft 255kts
04-Dec-18 08:22 35.781765 -115.306427 177 12975ft 245kts
04-Dec-18 08:23 35.715830 -115.298888 179 15050ft 233kts
04-Dec-18 08:24 35.660535 -115.319445 226 17127ft 208kts
04-Dec-18 08:25 35.622961 -115.369127 229 19184ft 191kts
04-Dec-18 08:26 35.589333 -115.414295 229 21219ft 169kts
04-Dec-18 08:27 35.560251 -115.453288 230 23229ft 140kts
04-Dec-18 08:28 35.533735 -115.489081 230 24029ft 169kts
04-Dec-18 08:29 35.496688 -115.538912 230 24015ft 221kts
04-Dec-18 08:30 35.452596 -115.598354 229 24007ft 246kts
04-Dec-18 08:31 35.405496 -115.661748 229 24013ft 257kts
04-Dec-18 08:32 35.357247 -115.726624 229 24000ft 263kts
04-Dec-18 08:33 35.307466 -115.793386 229 23978ft 266kts
04-Dec-18 08:34 35.257396 -115.860438 229 23957ft 267kts
04-Dec-18 08:35 35.206371 -115.927082 228 23935ft 267kts
04-Dec-18 08:36 35.154731 -115.992349 228 23933ft 267kts
04-Dec-18 08:37 35.103048 -116.057468 228 23932ft 267kts
04-Dec-18 08:38 35.051383 -116.122460 228 23931ft 266kts
04-Dec-18 08:39 34.999658 -116.187366 228 23939ft 265kts
04-Dec-18 08:40 34.949804 -116.249821 228 24281ft 258kts
04-Dec-18 08:41 34.899510 -116.312723 228 24273ft 260kts
04-Dec-18 08:42 34.849283 -116.376391 228 24264ft 261kts
04-Dec-18 08:43 34.799110 -116.440284 228 24254ft 261kts
04-Dec-18 08:44 34.748796 -116.504251 228 24252ft 261kts
04-Dec-18 08:45 34.698584 -116.567935 227 24253ft 261kts
04-Dec-18 08:46 34.640339 -116.626611 222 23136ft 292kts
04-Dec-18 08:47 34.574308 -116.691250 221 21324ft 313kts
04-Dec-18 08:48 34.506294 -116.757776 222 20251ft 304kts
04-Dec-18 08:49 34.444827 -116.828620 225 19012ft 312kts
04-Dec-18 08:51 34.381500 -116.902059 224 17526ft 318kts
04-Dec-18 08:52 34.317229 -116.976352 224 16029ft 322kts
04-Dec-18 08:53 34.248795 -117.045908 213 14520ft 325kts
04-Dec-18 08:54 34.173175 -117.100854 208 13862ft 313kts
04-Dec-18 08:55 34.091071 -117.145598 204 12160ft 329kts
04-Dec-18 08:56 34.010951 -117.188413 204 12133ft 306kts
04-Dec-18 08:57 33.949569 -117.262085 227 11141ft 317kts
04-Dec-18 08:58 33.893475 -117.341088 227 10206ft 283kts
04-Dec-18 08:59 33.847867 -117.405462 226 8154ft 236kts
04-Dec-18 09:00 33.814324 -117.460583 243 7851ft 199kts
04-Dec-18 09:01 33.800717 -117.539512 268 7623ft 269kts
04-Dec-18 09:02 33.818121 -117.628561 299 7114ft 300kts
04-Dec-18 09:03 33.856972 -117.701792 301 5117ft 235kts
04-Dec-18 09:04 33.840180 -117.764438 210 3086ft 205kts
04-Dec-18 09:05 33.797459 -117.791435 207 2648ft 171kts
04-Dec-18 09:06 33.754991 -117.818505 207 1730ft 164kts
04-Dec-18 09:07 33.719991 -117.840730 207 943ft 133kts
04-Dec-18 09:08 33.691632 -117.858728 207 302ft 95kts
04-Dec-18 09:08 33.675037 -117.869261 207 60ft 54kts
04-Dec-18 09:10 33.674208 -117.870727 301 60ft 0kts
04-Dec-18 09:11 33.674211 -117.870734 301 60ft 2kts
04-Dec-18 09:11 33.674847 -117.871765 211 60ft 0kts

Navigation Log

Ident Type
Flight plan parsing failed, navigation log unavailable